Time;durP1;ratioP1;P1;durP2;ratioP2;P2;SDS_P1;SDS_P2;PMS_P1;PMS_P2;Temp;Humidity;BMP_temperature;BMP_pressure;BME280_temperature;BME280_humidity;BME280_pressure;Samples;Min_cycle;Max_cycle;Signal;HPM_P1;HPM_P2
2022/07/11 03:50:28;;;;;;;;;;;;;;;20.72;43.21;97216.53;4244565;27;11318;-63
2022/07/11 03:52:32;;;;;;;;;;;;;;;20.84;43.02;97214.56;4240368;27;5709;-63
2022/07/11 03:54:34;;;;;;;;;;;;;;;20.96;42.84;97214.47;4237104;27;5675;-68
2022/07/11 03:56:37;;;;;;;;;;;;;;;21.14;42.91;97216.00;4245631;27;5810;-68
2022/07/11 03:58:40;;;;;;;;;;;;;;;21.30;42.43;97217.88;4244000;27;5650;-70
2022/07/11 04:00:43;;;;;;;;;;;;;;;21.45;42.30;97215.34;4237314;27;5662;-72
2022/07/11 04:02:46;;;;;;;;;;;;;;;21.60;42.27;97214.69;4232300;28;5754;-68
2022/07/11 04:04:49;;;;;;;;;;;;;;;21.55;42.00;97208.47;4243630;27;5649;-68
2022/07/11 04:06:53;;;;;;;;;;;;;;;21.57;42.09;97212.50;4237046;27;5832;-69
2022/07/11 04:08:56;;;;;;;;;;;;;;;21.56;42.29;97210.91;4231763;28;5770;-72
2022/07/11 04:10:59;;;;;;;;;;;;;;;21.67;42.22;97207.25;4230108;28;5611;-70
2022/07/11 04:13:22;;;;;;;;;;;;;;;21.85;41.90;97210.63;4231002;28;5671;-72
2022/07/11 04:15:26;;;;;;;;;;;;;;;21.94;41.71;97212.59;4230157;28;5821;-69
2022/07/11 04:17:29;;;;;;;;;;;;;;;22.02;41.42;97205.97;4247343;27;5840;-63
2022/07/11 04:19:32;;;;;;;;;;;;;;;22.08;41.62;97211.19;4232960;27;5671;-65
2022/07/11 04:21:35;;;;;;;;;;;;;;;22.15;41.42;97210.13;4231455;28;5765;-66
2022/07/11 04:23:39;;;;;;;;;;;;;;;22.20;41.20;97216.38;4238494;27;5621;-72
2022/07/11 04:25:43;;;;;;;;;;;;;;;22.15;41.34;97215.50;4248352;27;5713;-64
2022/07/11 04:27:46;;;;;;;;;;;;;;;22.20;41.46;97220.94;4241698;27;5762;-71
2022/07/11 04:29:49;;;;;;;;;;;;;;;22.21;41.32;97220.69;4237539;27;5605;-72
2022/07/11 04:31:52;;;;;;;;;;;;;;;22.07;41.29;97227.56;4241627;27;5597;-69
2022/07/11 04:33:55;;;;;;;;;;;;;;;21.99;41.13;97220.75;4231469;28;5671;-68
2022/07/11 04:35:58;;;;;;;;;;;;;;;22.02;41.22;97214.84;4234166;27;5670;-64
2022/07/11 04:38:01;;;;;;;;;;;;;;;21.95;41.42;97219.63;4235057;27;5868;-69
2022/07/11 04:40:07;;;;;;;;;;;;;;;21.83;41.44;97216.28;4236747;27;5654;-70
2022/07/11 04:42:15;;;;;;;;;;;;;;;21.92;41.43;97219.31;4247232;27;5641;-73
2022/07/11 04:44:18;;;;;;;;;;;;;;;22.04;40.98;97223.47;4233866;27;5860;-69
2022/07/11 04:46:21;;;;;;;;;;;;;;;22.07;40.99;97228.38;4243713;27;5691;-65
2022/07/11 04:48:24;;;;;;;;;;;;;;;22.08;41.01;97224.63;4231201;28;5679;-68
2022/07/11 04:50:27;;;;;;;;;;;;;;;22.12;40.65;97229.50;4232170;27;5717;-71
2022/07/11 04:52:30;;;;;;;;;;;;;;;22.11;40.83;97228.69;4228274;28;5756;-64
2022/07/11 04:54:32;;;;;;;;;;;;;;;22.14;40.64;97224.66;4233337;27;5738;-69
2022/07/11 04:56:37;;;;;;;;;;;;;;;22.17;40.85;97227.66;4232988;28;5895;-66
2022/07/11 04:58:40;;;;;;;;;;;;;;;22.18;40.50;97231.97;4225980;28;5790;-73
2022/07/11 05:00:42;;;;;;;;;;;;;;;22.19;40.70;97235.47;4236030;28;5649;-70
2022/07/11 05:02:45;;;;;;;;;;;;;;;22.24;40.88;97230.13;4235988;28;5646;-69
2022/07/11 05:04:48;;;;;;;;;;;;;;;22.28;40.64;97223.16;4234216;28;5725;-66
2022/07/11 05:06:51;;;;;;;;;;;;;;;22.35;40.55;97223.75;4235761;28;5662;-67
2022/07/11 05:08:55;;;;;;;;;;;;;;;22.40;40.50;97225.66;4230461;28;6811;-74
2022/07/11 05:10:58;;;;;;;;;;;;;;;22.37;40.58;97227.00;4231816;27;5724;-69
2022/07/11 05:13:02;;;;;;;;;;;;;;;22.35;40.74;97221.88;4231818;28;7699;-69
2022/07/11 05:15:06;;;;;;;;;;;;;;;22.35;40.61;97229.97;4225375;28;5845;-70
2022/07/11 05:17:09;;;;;;;;;;;;;;;22.30;40.42;97239.88;4236768;28;5642;-72
2022/07/11 05:19:12;;;;;;;;;;;;;;;22.28;40.33;97244.72;4230495;28;5674;-71
2022/07/11 05:21:14;;;;;;;;;;;;;;;22.36;40.25;97241.53;4220755;28;5691;-70
2022/07/11 05:23:17;;;;;;;;;;;;;;;22.29;40.15;97241.75;4236525;28;5670;-68
2022/07/11 05:25:20;;;;;;;;;;;;;;;22.22;40.45;97237.66;4232129;28;6071;-70
2022/07/11 05:27:23;;;;;;;;;;;;;;;22.27;40.28;97241.19;4232609;28;5713;-69
2022/07/11 05:29:28;;;;;;;;;;;;;;;22.34;40.56;97241.00;4235939;28;5436;-70
2022/07/11 05:31:33;;;;;;;;;;;;;;;22.39;40.47;97246.41;4231375;27;5840;-68
2022/07/11 05:33:36;;;;;;;;;;;;;;;22.45;40.28;97248.09;4229666;28;5646;-69
2022/07/11 05:35:39;;;;;;;;;;;;;;;22.35;40.31;97243.44;4234563;28;5593;-70
2022/07/11 05:37:41;;;;;;;;;;;;;;;22.37;40.17;97243.97;4235964;27;5818;-68
2022/07/11 05:39:44;;;;;;;;;;;;;;;22.38;40.31;97251.00;4231636;28;5752;-69
2022/07/11 05:41:50;;;;;;;;;;;;;;;22.52;40.35;97251.34;4219249;28;5662;-69
2022/07/11 05:43:53;;;;;;;;;;;;;;;22.73;39.83;97251.50;4219117;28;5764;-68
2022/07/11 05:45:57;;;;;;;;;;;;;;;22.98;39.65;97246.28;4219476;28;5687;-68
2022/07/11 05:48:00;;;;;;;;;;;;;;;23.24;39.62;97253.47;4219355;28;5659;-70
2022/07/11 05:50:03;;;;;;;;;;;;;;;23.46;39.22;97252.47;4218798;28;5755;-69
2022/07/11 05:52:07;;;;;;;;;;;;;;;23.54;38.82;97246.53;4218597;28;5659;-70
2022/07/11 05:54:09;;;;;;;;;;;;;;;23.67;38.80;97251.50;4219074;28;5658;-69
2022/07/11 05:56:12;;;;;;;;;;;;;;;23.83;39.13;97255.03;4218464;28;5766;-71
2022/07/11 05:58:15;;;;;;;;;;;;;;;23.93;39.00;97243.44;4226306;28;6418;-67
2022/07/11 06:00:18;;;;;;;;;;;;;;;24.05;38.77;97246.72;4230527;28;5721;-69
2022/07/11 06:02:23;;;;;;;;;;;;;;;24.19;38.52;97247.00;4233590;28;5756;-71
2022/07/11 06:04:26;;;;;;;;;;;;;;;24.24;38.67;97245.13;4234537;28;5119;-69
2022/07/11 06:06:29;;;;;;;;;;;;;;;24.33;38.44;97248.91;4231746;28;5674;-70
2022/07/11 06:08:43;;;;;;;;;;;;;;;24.36;38.21;97248.38;4232737;28;5812;-71
2022/07/11 06:10:45;;;;;;;;;;;;;;;24.44;38.43;97248.91;4233784;27;5721;-72
2022/07/11 06:12:48;;;;;;;;;;;;;;;24.55;38.26;97245.13;4221743;28;5085;-70
2022/07/11 06:14:52;;;;;;;;;;;;;;;24.60;37.97;97245.13;4218697;28;5675;-71
2022/07/11 06:16:54;;;;;;;;;;;;;;;24.53;38.34;97252.69;4232078;28;5806;-69
2022/07/11 06:19:00;;;;;;;;;;;;;;;24.63;38.25;97247.28;4219749;28;5683;-71
2022/07/11 06:21:03;;;;;;;;;;;;;;;24.80;38.14;97255.91;4228899;28;5729;-72
2022/07/11 06:23:06;;;;;;;;;;;;;;;24.87;37.89;97252.91;4228424;28;5717;-70
2022/07/11 06:25:10;;;;;;;;;;;;;;;24.92;37.91;97250.22;4232721;28;5834;-68
2022/07/11 06:27:13;;;;;;;;;;;;;;;24.96;37.52;97252.09;4234454;28;5740;-73
2022/07/11 06:29:15;;;;;;;;;;;;;;;24.83;37.95;97254.56;4226036;28;5857;-70
2022/07/11 06:31:18;;;;;;;;;;;;;;;24.79;37.94;97250.75;4226963;28;5642;-72
2022/07/11 06:33:22;;;;;;;;;;;;;;;24.86;37.58;97252.13;4231782;28;5650;-70
2022/07/11 06:35:26;;;;;;;;;;;;;;;24.93;37.86;97259.97;4227397;28;5687;-73
2022/07/11 06:37:29;;;;;;;;;;;;;;;24.89;37.50;97256.16;4228102;28;5671;-72
2022/07/11 06:39:32;;;;;;;;;;;;;;;24.88;37.78;97255.34;4230357;28;6450;-68
2022/07/11 06:41:35;;;;;;;;;;;;;;;24.83;37.67;97252.66;4233327;28;5642;-69
2022/07/11 06:43:38;;;;;;;;;;;;;;;24.84;37.79;97254.28;4230838;28;5740;-69
2022/07/11 06:45:41;;;;;;;;;;;;;;;24.84;37.46;97262.41;4227672;28;6335;-73
2022/07/11 06:47:44;;;;;;;;;;;;;;;24.86;37.43;97259.41;4232381;28;5666;-70
2022/07/11 06:49:47;;;;;;;;;;;;;;;24.95;37.27;97261.28;4228824;27;5783;-72
2022/07/11 06:51:51;;;;;;;;;;;;;;;25.00;37.79;97251.53;4228190;28;5864;-70
2022/07/11 06:53:54;;;;;;;;;;;;;;;24.97;37.37;97253.72;4224807;28;5817;-73
2022/07/11 06:55:57;;;;;;;;;;;;;;;24.97;37.22;97251.00;4229805;28;5674;-75
2022/07/11 06:58:00;;;;;;;;;;;;;;;25.00;37.18;97255.06;4226216;28;5691;-73
2022/07/11 07:00:23;;;;;;;;;;;;;;;25.03;37.28;97257.25;4223161;27;5795;-71
2022/07/11 07:02:29;;;;;;;;;;;;;;;25.03;37.39;97264.53;4227787;28;5775;-74
2022/07/11 07:04:33;;;;;;;;;;;;;;;25.01;37.46;97264.81;4228688;28;5843;-72
2022/07/11 07:06:37;;;;;;;;;;;;;;;24.92;37.17;97261.84;4228695;28;5857;-73
2022/07/11 07:08:41;;;;;;;;;;;;;;;24.89;37.24;97256.97;4221781;28;5737;-70
2022/07/11 07:10:44;;;;;;;;;;;;;;;24.82;37.20;97261.88;4228010;28;6327;-69
2022/07/11 07:12:47;;;;;;;;;;;;;;;24.77;37.79;97259.16;4222794;28;5657;-70
2022/07/11 07:14:50;;;;;;;;;;;;;;;24.72;37.48;97261.88;4219765;28;5668;-73
2022/07/11 07:16:53;;;;;;;;;;;;;;;24.68;37.28;97258.06;4225174;28;5663;-73
2022/07/11 07:18:57;;;;;;;;;;;;;;;24.62;37.48;97253.78;4225125;28;5653;-70
2022/07/11 07:21:00;;;;;;;;;;;;;;;24.62;37.75;97259.19;4221354;28;5671;-70
2022/07/11 07:23:03;;;;;;;;;;;;;;;24.60;37.64;97258.66;4228272;28;5674;-70
2022/07/11 07:25:09;;;;;;;;;;;;;;;24.58;37.45;97263.53;4234311;28;5813;-71
2022/07/11 07:27:12;;;;;;;;;;;;;;;24.50;37.48;97267.56;4230201;28;5653;-73
2022/07/11 07:29:15;;;;;;;;;;;;;;;24.34;37.73;97257.81;4217673;28;5679;-73
2022/07/11 07:31:18;;;;;;;;;;;;;;;24.26;38.08;97258.34;4231116;28;5733;-71
2022/07/11 07:33:21;;;;;;;;;;;;;;;24.29;38.05;97264.00;4231577;28;5661;-70
2022/07/11 07:35:44;;;;;;;;;;;;;;;24.26;37.82;97264.56;4220375;28;5734;-72
2022/07/11 07:37:47;;;;;;;;;;;;;;;24.27;38.10;97268.06;4222034;28;5792;-68
2022/07/11 07:39:50;;;;;;;;;;;;;;;24.21;38.04;97264.53;4221565;28;5877;-68
2022/07/11 07:41:54;;;;;;;;;;;;;;;24.20;38.29;97270.22;4217263;28;5921;-70
2022/07/11 07:43:57;;;;;;;;;;;;;;;24.17;38.37;97265.34;4225773;28;5764;-67
2022/07/11 07:46:00;;;;;;;;;;;;;;;24.18;37.96;97267.78;4222229;28;5975;-70
2022/07/11 07:48:03;;;;;;;;;;;;;;;24.13;38.13;97259.69;4226169;28;5638;-68
2022/07/11 07:50:07;;;;;;;;;;;;;;;24.04;38.56;97266.69;4229446;28;5719;-69
2022/07/11 07:52:10;;;;;;;;;;;;;;;24.00;38.29;97260.19;4220454;28;5993;-69
2022/07/11 07:54:13;;;;;;;;;;;;;;;23.98;38.54;97262.34;4231787;28;5809;-71
2022/07/11 07:56:16;;;;;;;;;;;;;;;23.96;38.58;97264.50;4229074;28;5775;-70
2022/07/11 07:58:20;;;;;;;;;;;;;;;23.96;38.33;97259.09;4225537;28;5778;-71
2022/07/11 08:02:44;;;;;;;;;;;;;;;23.96;38.66;97261.81;4230595;28;5740;-69
2022/07/11 08:04:47;;;;;;;;;;;;;;;23.98;39.05;97265.06;4215123;28;5782;-70
2022/07/11 08:06:51;;;;;;;;;;;;;;;23.90;38.77;97258.31;4214406;28;5778;-70
2022/07/11 08:08:54;;;;;;;;;;;;;;;23.86;39.01;97259.09;4229003;28;5711;-71
2022/07/11 08:11:00;;;;;;;;;;;;;;;23.83;38.76;97251.53;4229437;28;5808;-69
2022/07/11 08:13:25;;;;;;;;;;;;;;;23.77;39.12;97248.81;4225692;28;5758;-70
2022/07/11 08:15:28;;;;;;;;;;;;;;;23.75;38.92;97256.34;4218814;28;5113;-70
2022/07/11 08:17:31;;;;;;;;;;;;;;;23.72;39.38;97248.81;4229960;28;5761;-73
2022/07/11 08:19:34;;;;;;;;;;;;;;;23.76;39.13;97255.28;4230817;28;5772;-71
2022/07/11 08:21:36;;;;;;;;;;;;;;;23.71;39.08;97249.88;4228792;28;5792;-69
2022/07/11 08:23:39;;;;;;;;;;;;;;;23.72;39.53;97245.28;4219873;28;5749;-69
2022/07/11 08:25:42;;;;;;;;;;;;;;;23.77;39.13;97246.09;4225676;28;6155;-71
2022/07/11 08:27:45;;;;;;;;;;;;;;;23.78;39.33;97247.75;4229385;28;5724;-69
2022/07/11 08:29:50;;;;;;;;;;;;;;;23.79;39.03;97238.56;4234500;28;6447;-68
2022/07/11 08:31:53;;;;;;;;;;;;;;;23.82;39.55;97239.91;4234533;28;5880;-69
2022/07/11 08:33:57;;;;;;;;;;;;;;;23.88;39.56;97240.72;4229412;28;5097;-68
2022/07/11 08:36:00;;;;;;;;;;;;;;;23.87;39.13;97239.09;4219925;28;5852;-72
2022/07/11 08:38:03;;;;;;;;;;;;;;;23.89;39.13;97240.44;4232901;28;5699;-71
2022/07/11 08:40:07;;;;;;;;;;;;;;;23.93;39.12;97238.84;4228010;28;5804;-68
2022/07/11 08:42:12;;;;;;;;;;;;;;;23.97;39.56;97231.03;4225403;28;5835;-68
2022/07/11 08:44:15;;;;;;;;;;;;;;;23.98;39.60;97235.34;4226574;28;5766;-71
2022/07/11 08:46:20;;;;;;;;;;;;;;;24.03;39.63;97232.66;4233948;28;5107;-69
2022/07/11 08:48:24;;;;;;;;;;;;;;;24.01;39.51;97234.81;4234599;28;5845;-71
2022/07/11 08:50:28;;;;;;;;;;;;;;;24.00;39.69;97227.78;4226481;28;5771;-72
2022/07/11 08:52:32;;;;;;;;;;;;;;;23.98;39.37;97224.53;4230889;27;5848;-69
2022/07/11 08:54:35;;;;;;;;;;;;;;;23.95;39.48;97230.50;4231630;28;5756;-72
2022/07/11 08:56:38;;;;;;;;;;;;;;;24.01;39.52;97234.81;4232374;28;5758;-72
2022/07/11 08:58:43;;;;;;;;;;;;;;;24.00;39.76;97238.59;4232092;28;5720;-69
2022/07/11 09:00:55;;;;;;;;;;;;;;;24.03;39.89;97230.78;4229681;28;5097;-71
2022/07/11 09:03:02;;;;;;;;;;;;;;;24.04;39.96;97223.47;4232856;28;5729;-71
2022/07/11 09:05:07;;;;;;;;;;;;;;;24.04;39.93;97228.88;4225880;28;6647;-71
2022/07/11 09:07:10;;;;;;;;;;;;;;;24.08;39.91;97227.25;4227491;28;5826;-68
2022/07/11 09:09:13;;;;;;;;;;;;;;;24.06;39.78;97229.41;4216170;28;5675;-69
2022/07/11 09:11:16;;;;;;;;;;;;;;;24.05;40.01;97222.41;4239462;27;5702;-68
2022/07/11 09:13:20;;;;;;;;;;;;;;;24.03;39.59;97227.28;4228401;28;5773;-69
2022/07/11 09:15:32;;;;;;;;;;;;;;;24.08;39.64;97225.38;4230263;27;5761;-71
2022/07/11 09:17:35;;;;;;;;;;;;;;;24.11;39.75;97224.00;4224594;28;5723;-69
2022/07/11 09:19:40;;;;;;;;;;;;;;;24.15;40.12;97232.41;4224366;28;5741;-70
2022/07/11 09:26:40;;;;;;;;;;;;;;;24.17;40.02;97217.53;4232942;28;5800;-70
2022/07/11 09:28:58;;;;;;;;;;;;;;;24.20;40.20;97222.41;4217603;28;5789;-71
2022/07/11 09:31:16;;;;;;;;;;;;;;;24.11;40.22;97218.59;4217928;28;5757;-70
2022/07/11 09:33:19;;;;;;;;;;;;;;;24.05;40.49;97220.50;4224615;28;5755;-70
2022/07/11 09:35:25;;;;;;;;;;;;;;;24.04;40.15;97221.59;4233190;27;5741;-69
2022/07/11 09:37:43;;;;;;;;;;;;;;;24.04;40.55;97218.88;4232806;28;5799;-71
2022/07/11 09:39:46;;;;;;;;;;;;;;;24.05;40.50;97217.81;4232732;27;6461;-69
2022/07/11 09:41:51;;;;;;;;;;;;;;;24.06;40.61;97207.81;4218497;28;6492;-69
2022/07/11 09:44:06;;;;;;;;;;;;;;;24.09;40.28;97212.66;4231772;27;5767;-70
2022/07/11 09:46:09;;;;;;;;;;;;;;;24.15;40.51;97214.31;4232804;28;5749;-71
2022/07/11 09:48:14;;;;;;;;;;;;;;;24.18;40.23;97221.88;4233186;28;7723;-69
2022/07/11 09:50:20;;;;;;;;;;;;;;;24.20;40.34;97214.28;4232955;28;5749;-67
2022/07/11 09:52:24;;;;;;;;;;;;;;;24.21;40.46;97212.41;4231875;28;5719;-69
2022/07/11 09:54:52;;;;;;;;;;;;;;;24.18;40.79;97213.75;4230197;28;5732;-68
2022/07/11 09:56:55;;;;;;;;;;;;;;;24.18;40.59;97211.06;4219899;28;5765;-71
2022/07/11 09:59:00;;;;;;;;;;;;;;;24.16;40.51;97210.53;4232809;28;6043;-70
2022/07/11 10:01:03;;;;;;;;;;;;;;;24.20;40.55;97208.91;4233262;28;5741;-74
2022/07/11 10:03:07;;;;;;;;;;;;;;;24.18;40.52;97208.34;4222190;28;5762;-70
2022/07/11 10:05:31;;;;;;;;;;;;;;;24.18;40.35;97205.66;4224211;28;5693;-73
2022/07/11 10:07:36;;;;;;;;;;;;;;;24.19;40.71;97212.69;4231513;28;5839;-70
2022/07/11 10:09:39;;;;;;;;;;;;;;;24.18;40.58;97200.25;4231176;28;5763;-71
2022/07/11 10:11:42;;;;;;;;;;;;;;;24.21;40.85;97210.50;4229513;28;5107;-72
2022/07/11 10:13:45;;;;;;;;;;;;;;;24.24;40.86;97212.69;4232974;28;5744;-72
2022/07/11 10:15:48;;;;;;;;;;;;;;;24.32;40.50;97212.16;4232269;28;5796;-71
2022/07/11 10:18:06;;;;;;;;;;;;;;;24.37;40.70;97211.38;4226730;28;5760;-73
2022/07/11 10:20:16;;;;;;;;;;;;;;;24.41;40.73;97208.94;4223129;28;6543;-68
2022/07/11 10:22:26;;;;;;;;;;;;;;;24.41;40.85;97215.13;4222813;28;5818;-71
2022/07/11 10:24:37;;;;;;;;;;;;;;;24.49;40.46;97213.78;4223875;28;6647;-70
2022/07/11 10:26:47;;;;;;;;;;;;;;;24.53;40.39;97204.84;4220884;28;5770;-72
2022/07/11 10:28:54;;;;;;;;;;;;;;;24.55;40.52;97215.38;4216061;28;5774;-70
2022/07/11 10:30:59;;;;;;;;;;;;;;;24.55;40.55;97213.50;4216137;28;5816;-73
2022/07/11 10:33:06;;;;;;;;;;;;;;;24.59;40.67;97211.06;4215887;28;5791;-69
2022/07/11 10:35:11;;;;;;;;;;;;;;;24.64;40.80;97216.47;4224539;28;5811;-73
2022/07/11 10:37:14;;;;;;;;;;;;;;;24.63;40.50;97199.44;4230564;28;5818;-71
2022/07/11 10:39:18;;;;;;;;;;;;;;;24.66;40.48;97215.09;4231793;27;5764;-68
2022/07/11 10:41:23;;;;;;;;;;;;;;;24.71;40.49;97210.78;4228983;28;5814;-73
2022/07/11 10:43:36;;;;;;;;;;;;;;;24.69;40.83;97208.38;4230906;28;5854;-69
2022/07/11 10:45:59;;;;;;;;;;;;;;;24.70;41.07;97201.06;4230428;28;5800;-71
2022/07/11 10:48:11;;;;;;;;;;;;;;;24.72;41.21;97202.41;4231341;28;5776;-70
2022/07/11 10:50:32;;;;;;;;;;;;;;;24.74;40.90;97202.13;4223136;28;5772;-70
2022/07/11 10:52:40;;;;;;;;;;;;;;;24.77;41.08;97202.38;4232029;28;5752;-70
2022/07/11 10:54:59;;;;;;;;;;;;;;;24.81;40.63;97198.06;4230548;28;6485;-71
2022/07/11 10:57:14;;;;;;;;;;;;;;;24.84;40.81;97200.19;4230843;27;5764;-68
2022/07/11 10:59:19;;;;;;;;;;;;;;;24.86;41.23;97186.41;4224078;28;5748;-71
2022/07/11 11:01:22;;;;;;;;;;;;;;;24.89;40.93;97197.47;4232104;28;5764;-70
2022/07/11 11:03:25;;;;;;;;;;;;;;;24.92;41.17;97194.25;4225836;28;5770;-69
2022/07/11 11:05:41;;;;;;;;;;;;;;;24.97;41.00;97194.22;4230997;28;5752;-70
2022/07/11 11:07:45;;;;;;;;;;;;;;;25.02;40.93;97189.88;4230813;28;5859;-69
2022/07/11 11:09:48;;;;;;;;;;;;;;;25.05;41.24;97181.25;4224295;28;5740;-69
2022/07/11 11:11:51;;;;;;;;;;;;;;;25.07;41.10;97192.59;4228286;28;5725;-71
2022/07/11 11:14:26;;;;;;;;;;;;;;;25.10;41.23;97187.44;4220847;28;5778;-70
2022/07/11 11:16:29;;;;;;;;;;;;;;;25.11;41.00;97178.22;4224056;28;5760;-69
2022/07/11 11:18:36;;;;;;;;;;;;;;;25.09;41.16;97174.19;4228516;28;5805;-69
2022/07/11 11:20:39;;;;;;;;;;;;;;;25.08;40.95;97186.09;4220583;28;5795;-70
2022/07/11 11:23:08;;;;;;;;;;;;;;;25.09;41.03;97177.69;4230413;28;5801;-69
2022/07/11 11:25:12;;;;;;;;;;;;;;;25.11;41.14;97180.94;4219634;28;5824;-70
2022/07/11 11:27:27;;;;;;;;;;;;;;;25.15;41.22;97162.28;4227717;28;5736;-68
2022/07/11 11:29:31;;;;;;;;;;;;;;;25.23;41.25;97177.91;4229233;28;5792;-72
2022/07/11 11:31:35;;;;;;;;;;;;;;;25.25;41.31;97171.13;4226056;28;5843;-72
2022/07/11 11:33:40;;;;;;;;;;;;;;;25.25;41.43;97164.91;4228872;28;5839;-69
2022/07/11 11:35:43;;;;;;;;;;;;;;;25.25;40.95;97167.59;4220110;28;5760;-71
2022/07/11 11:37:46;;;;;;;;;;;;;;;25.27;41.22;97164.66;4230718;28;5797;-72
2022/07/11 11:40:08;;;;;;;;;;;;;;;25.32;41.37;97167.31;4229915;27;5753;-69
2022/07/11 11:42:17;;;;;;;;;;;;;;;25.32;41.56;97165.41;4222062;28;5773;-71
2022/07/11 11:44:20;;;;;;;;;;;;;;;25.26;41.48;97153.03;4219020;28;5821;-79
2022/07/11 11:46:25;;;;;;;;;;;;;;;25.27;41.50;97164.66;4224815;28;5737;-79
2022/07/11 11:48:29;;;;;;;;;;;;;;;25.29;41.40;97160.56;4232990;28;5733;-80
2022/07/11 11:50:32;;;;;;;;;;;;;;;25.31;41.17;97155.69;4234898;28;5645;-80
2022/07/11 11:52:35;;;;;;;;;;;;;;;25.35;41.67;97161.34;4236001;28;5713;-80
2022/07/11 11:54:39;;;;;;;;;;;;;;;25.37;41.59;97161.88;4227017;28;5727;-80
2022/07/11 11:56:42;;;;;;;;;;;;;;;25.38;41.53;97161.63;4219745;28;5824;-80
2022/07/11 11:58:45;;;;;;;;;;;;;;;25.37;41.46;97157.28;4228410;28;5761;-80
2022/07/11 12:00:55;;;;;;;;;;;;;;;25.40;41.37;97158.63;4225966;28;5838;-80
2022/07/11 12:03:09;;;;;;;;;;;;;;;25.44;41.32;97157.78;4228877;28;5772;-79
2022/07/11 12:05:13;;;;;;;;;;;;;;;25.46;41.36;97154.78;4242929;27;5749;-80
2022/07/11 12:07:22;;;;;;;;;;;;;;;25.48;41.65;97150.72;4236933;28;6420;-81
2022/07/11 12:09:46;;;;;;;;;;;;;;;25.51;41.44;97147.47;4235432;28;5857;-80
2022/07/11 12:12:43;;;;;;;;;;;;;;;25.52;41.27;97159.91;4241049;28;5739;-86
2022/07/11 12:14:16;;;;;;;;;;;;;;;25.53;41.82;97150.69;4237481;28;5687;-84
2022/07/11 12:18:41;;;;;;;;;;;;;;;25.58;41.61;97151.72;4244647;28;5505;-85
2022/07/11 12:20:44;;;;;;;;;;;;;;;25.61;41.38;97149.28;4234529;28;5679;-83
2022/07/11 12:22:49;;;;;;;;;;;;;;;25.62;41.86;97139.28;4228458;28;5624;-79
2022/07/11 12:24:53;;;;;;;;;;;;;;;25.66;41.51;97132.19;4237810;27;5650;-79
2022/07/11 12:26:58;;;;;;;;;;;;;;;25.67;41.80;97126.50;4236231;28;5650;-79
2022/07/11 12:29:10;;;;;;;;;;;;;;;25.70;41.34;97122.44;4236998;28;5697;-74
2022/07/11 12:31:13;;;;;;;;;;;;;;;25.72;41.29;97133.81;4233686;27;5649;-75
2022/07/11 12:33:16;;;;;;;;;;;;;;;25.75;41.72;97128.63;4236715;28;5641;-71
2022/07/11 12:35:21;;;;;;;;;;;;;;;25.75;41.51;97134.06;4236099;28;5657;-74
2022/07/11 12:37:23;;;;;;;;;;;;;;;25.76;41.46;97124.03;4236994;28;5697;-75
2022/07/11 12:39:29;;;;;;;;;;;;;;;25.77;41.40;97128.34;4236333;28;5771;-77
2022/07/11 12:41:34;;;;;;;;;;;;;;;25.79;41.12;97134.28;4235075;28;5673;-75
2022/07/11 12:46:06;;;;;;;;;;;;;;;25.85;41.44;97125.06;4225074;28;5665;-72
2022/07/11 12:48:09;;;;;;;;;;;;;;;25.86;41.40;97126.66;4232669;28;6354;-72
2022/07/11 12:50:13;;;;;;;;;;;;;;;25.86;41.50;97125.84;4235640;28;5107;-71
2022/07/11 12:52:18;;;;;;;;;;;;;;;25.87;41.16;97122.88;4224490;28;5100;-72
2022/07/11 12:54:21;;;;;;;;;;;;;;;25.89;41.55;97128.81;4232539;28;5745;-75
2022/07/11 12:56:24;;;;;;;;;;;;;;;25.90;40.94;97119.59;4227130;28;5829;-74
2022/07/11 12:58:39;;;;;;;;;;;;;;;25.92;41.21;97120.09;4231168;28;7711;-75
2022/07/11 13:00:56;;;;;;;;;;;;;;;25.94;41.48;97115.25;4230730;28;5833;-71
2022/07/11 13:02:59;;;;;;;;;;;;;;;26.00;41.43;97118.69;4234605;28;5825;-71
2022/07/11 13:05:02;;;;;;;;;;;;;;;26.02;41.20;97116.50;4226230;28;5667;-72
2022/07/11 13:09:51;;;;;;;;;;;;;;;26.05;41.04;97119.47;4230060;28;5737;-72
2022/07/11 13:11:54;;;;;;;;;;;;;;;26.07;41.21;97120.00;4225262;27;5646;-72
2022/07/11 13:13:56;;;;;;;;;;;;;;;26.08;41.31;97109.97;4226465;28;5229;-73
2022/07/11 13:15:59;;;;;;;;;;;;;;;26.12;40.94;97117.22;4224925;28;5878;-73
2022/07/11 13:18:02;;;;;;;;;;;;;;;26.13;40.96;97121.53;4233173;28;5662;-72
2022/07/11 13:20:08;;;;;;;;;;;;;;;26.18;41.14;97122.63;4225240;28;5766;-73
2022/07/11 13:22:13;;;;;;;;;;;;;;;26.21;40.89;97119.31;4223843;28;5701;-73
2022/07/11 13:24:17;;;;;;;;;;;;;;;26.21;41.21;97113.91;4222793;28;5941;-73
2022/07/11 13:26:22;;;;;;;;;;;;;;;26.21;40.92;97124.75;4219360;28;5715;-72
2022/07/11 13:28:25;;;;;;;;;;;;;;;26.19;41.26;97116.91;4225576;28;5675;-73
2022/07/11 13:30:30;;;;;;;;;;;;;;;26.22;41.17;97127.16;4226613;28;5774;-73
2022/07/11 13:32:53;;;;;;;;;;;;;;;26.23;41.17;97126.06;4229267;28;5664;-73
2022/07/11 13:34:56;;;;;;;;;;;;;;;26.24;41.06;97127.69;4224999;28;5852;-72
2022/07/11 13:36:59;;;;;;;;;;;;;;;26.24;41.50;97124.97;4223617;28;6349;-73
2022/07/11 13:39:02;;;;;;;;;;;;;;;26.27;41.01;97112.75;4225494;28;5732;-72
2022/07/11 13:41:07;;;;;;;;;;;;;;;26.28;41.11;97120.63;4224807;28;5750;-73
2022/07/11 13:43:19;;;;;;;;;;;;;;;26.32;41.18;97126.25;4231757;28;5922;-73
2022/07/11 13:45:23;;;;;;;;;;;;;;;26.33;41.38;97117.84;4221316;28;5779;-73
2022/07/11 13:47:26;;;;;;;;;;;;;;;26.36;41.44;97124.59;4229872;28;5809;-74
2022/07/11 13:49:30;;;;;;;;;;;;;;;26.36;41.08;97127.28;4224829;28;5679;-73
2022/07/11 13:51:33;;;;;;;;;;;;;;;26.40;41.48;97114.84;4228100;28;5737;-73
2022/07/11 13:53:36;;;;;;;;;;;;;;;26.41;41.35;97116.44;4225666;28;5637;-73
2022/07/11 13:55:39;;;;;;;;;;;;;;;26.44;41.18;97115.88;4231919;28;5645;-73
2022/07/11 13:57:44;;;;;;;;;;;;;;;26.46;41.17;97126.41;4226134;28;5796;-73
2022/07/11 13:59:47;;;;;;;;;;;;;;;26.45;41.56;97114.78;4228416;28;5663;-73
2022/07/11 14:01:50;;;;;;;;;;;;;;;26.46;41.30;97110.97;4223785;28;5725;-72
2022/07/11 14:03:53;;;;;;;;;;;;;;;26.47;41.57;97107.16;4225503;28;5737;-72
2022/07/11 14:05:56;;;;;;;;;;;;;;;26.50;41.57;97113.91;4220769;28;5765;-72
2022/07/11 14:07:59;;;;;;;;;;;;;;;26.50;41.39;97109.28;4223208;28;5628;-73
2022/07/11 14:10:04;;;;;;;;;;;;;;;26.49;41.54;97102.25;4223487;28;5817;-72
2022/07/11 14:12:08;;;;;;;;;;;;;;;26.50;41.36;97106.56;4230198;28;5771;-73
2022/07/11 14:14:13;;;;;;;;;;;;;;;26.53;41.48;97108.72;4220880;28;5644;-72
2022/07/11 14:16:18;;;;;;;;;;;;;;;26.54;41.13;97106.81;4229175;28;5665;-72
2022/07/11 14:18:31;;;;;;;;;;;;;;;26.54;41.12;97101.41;4226385;28;5637;-73
2022/07/11 14:20:34;;;;;;;;;;;;;;;26.53;41.31;97100.59;4218532;28;6381;-72
2022/07/11 14:22:37;;;;;;;;;;;;;;;26.55;41.25;97103.81;4217625;28;5678;-72
2022/07/11 14:24:40;;;;;;;;;;;;;;;26.55;41.38;97103.00;4224123;28;5610;-72
2022/07/11 14:26:43;;;;;;;;;;;;;;;26.56;41.03;97099.22;4222134;28;5905;-72
2022/07/11 14:28:46;;;;;;;;;;;;;;;26.58;40.84;97102.44;4227266;28;5832;-72
2022/07/11 14:30:51;;;;;;;;;;;;;;;26.59;40.98;97110.28;4227995;28;5898;-72
2022/07/11 14:32:54;;;;;;;;;;;;;;;26.59;40.59;97104.84;4225490;28;5669;-72
2022/07/11 14:34:57;;;;;;;;;;;;;;;26.61;40.67;97101.84;4218883;27;5667;-72
2022/07/11 14:37:00;;;;;;;;;;;;;;;26.62;40.71;97104.28;4216093;28;5774;-72
2022/07/11 14:39:03;;;;;;;;;;;;;;;26.63;40.59;97105.09;4222284;28;5770;-72
2022/07/11 14:41:06;;;;;;;;;;;;;;;26.63;40.67;97102.38;4216434;28;6220;-73
2022/07/11 14:43:09;;;;;;;;;;;;;;;26.63;40.61;97110.53;4230243;28;5753;-73
2022/07/11 14:45:12;;;;;;;;;;;;;;;26.63;40.82;97105.91;4231738;28;5803;-73
2022/07/11 14:47:17;;;;;;;;;;;;;;;26.62;40.88;97098.88;4220946;28;5763;-72
2022/07/11 14:49:19;;;;;;;;;;;;;;;26.66;40.92;97093.66;4219785;28;5728;-71
2022/07/11 14:51:22;;;;;;;;;;;;;;;26.74;40.61;97106.59;4226279;27;5864;-71
2022/07/11 14:53:45;;;;;;;;;;;;;;;26.78;40.53;97101.41;4215375;28;5749;-72
2022/07/11 14:55:49;;;;;;;;;;;;;;;26.78;40.74;97098.69;4215167;28;5758;-71
2022/07/11 14:58:12;;;;;;;;;;;;;;;26.77;40.35;97105.22;4215441;28;5934;-71
2022/07/11 15:00:19;;;;;;;;;;;;;;;26.75;40.53;97100.06;4218231;28;5774;-71
2022/07/11 15:04:40;;;;;;;;;;;;;;;26.73;40.60;97098.72;4229847;28;5828;-71
2022/07/11 15:13:50;;;;;;;;;;;;;;;26.75;40.16;97100.06;4231098;28;5593;-72
2022/07/11 15:15:53;;;;;;;;;;;;;;;26.77;39.96;97091.66;4231298;28;5729;-72